Time;durP1;ratioP1;P1;durP2;ratioP2;P2;SDS_P1;SDS_P2;PMS_P1;PMS_P2;Temp;Humidity;BMP_temperature;BMP_pressure;BME280_temperature;BME280_humidity;BME280_pressure;Samples;Min_cycle;Max_cycle;Signal;HPM_P1;HPM_P2
2021/12/14 08:28:22;;;;;;;;;;;5.70;71.30;;;;;;1081077;39;20513;-71
2021/12/14 08:30:09;;;;;;;13.23;9.40;;;12.90;72.20;;;;;;1080935;47;20041;-71
2021/12/14 08:32:05;;;;;;;11.57;8.70;;;12.80;71.10;;;;;;1080896;47;20038;-73
2021/12/14 08:33:54;;;;;;;10.45;7.57;;;12.90;70.50;;;;;;1081241;46;20030;-72
2021/12/14 08:35:42;;;;;;;10.52;8.10;;;13.00;70.10;;;;;;1081246;47;20034;-70
2021/12/14 08:37:46;;;;;;;11.68;8.00;;;12.90;69.60;;;;;;1080695;47;20657;-73
2021/12/14 08:39:32;;;;;;;12.50;7.85;;;13.00;69.50;;;;;;1080882;47;20069;-70
2021/12/14 08:41:22;;;;;;;12.02;7.78;;;12.90;69.00;;;;;;1081093;39;20484;-73
2021/12/14 08:43:12;;;;;;;10.68;8.10;;;12.90;68.80;;;;;;1080711;46;20867;-71
2021/12/14 08:44:57;;;;;;;10.77;7.40;;;12.90;68.80;;;;;;1080940;47;20034;-71
2021/12/14 08:46:39;;;;;;;14.00;8.73;;;12.90;68.90;;;;;;1080470;47;20035;-70
2021/12/14 08:48:23;;;;;;;12.48;9.02;;;12.90;68.80;;;;;;1080993;39;20467;-71
2021/12/14 08:50:10;;;;;;;12.40;8.77;;;12.80;68.80;;;;;;1080728;46;20041;-72
2021/12/14 08:51:52;;;;;;;10.75;7.70;;;12.80;68.80;;;;;;1080163;46;20589;-72
2021/12/14 08:53:35;;;;;;;11.40;7.97;;;12.80;68.70;;;;;;1081335;39;20415;-72
2021/12/14 08:55:18;;;;;;;11.55;8.65;;;12.70;68.70;;;;;;1081229;46;20042;-72
2021/12/14 08:57:19;;;;;;;10.55;8.40;;;12.70;68.90;;;;;;1079384;54;20046;-73
2021/12/14 08:59:01;;;;;;;10.45;7.60;;;12.70;69.30;;;;;;1080591;47;20696;-72
2021/12/14 09:00:49;;;;;;;9.82;7.72;;;12.70;69.30;;;;;;1080686;39;20483;-72
2021/12/14 09:02:31;;;;;;;13.63;8.43;;;12.60;69.20;;;;;;1080947;46;20056;-71
2021/12/14 09:04:30;;;;;;;11.00;8.00;;;12.60;69.10;;;;;;1080891;46;20046;-71
2021/12/14 09:06:17;;;;;;;11.35;7.80;;;12.60;69.10;;;;;;1081057;39;20185;-72
2021/12/14 09:07:59;;;;;;;10.40;7.53;;;12.60;69.00;;;;;;1080398;47;20045;-72
2021/12/14 09:09:41;;;;;;;12.90;9.23;;;12.60;69.00;;;;;;1080918;47;20045;-71
2021/12/14 09:11:25;;;;;;;10.88;8.10;;;12.60;69.00;;;;;;1080683;47;20585;-71
2021/12/14 09:13:10;;;;;;;11.52;8.43;;;12.60;69.10;;;;;;1080835;47;20030;-72
2021/12/14 09:14:55;;;;;;;12.02;8.60;;;12.60;69.00;;;;;;1081024;39;20575;-71
2021/12/14 09:16:37;;;;;;;12.13;8.55;;;12.60;69.20;;;;;;1080193;47;20040;-71
2021/12/14 09:18:20;;;;;;;13.15;9.18;;;12.50;69.10;;;;;;1080639;47;20041;-72
2021/12/14 09:20:25;;;;;;;14.57;9.68;;;12.50;69.20;;;;;;1080717;47;20052;-71
2021/12/14 09:22:15;;;;;;;13.13;8.40;;;12.50;69.10;;;;;;1080263;47;20054;-71
2021/12/14 09:24:00;;;;;;;12.57;8.13;;;12.50;69.30;;;;;;1080906;47;20036;-70
2021/12/14 09:25:42;;;;;;;11.32;8.52;;;12.50;69.50;;;;;;1080976;47;20242;-72
2021/12/14 09:27:27;;;;;;;11.73;9.23;;;12.50;69.40;;;;;;1080062;47;20034;-72
2021/12/14 09:29:12;;;;;;;13.65;9.05;;;12.50;69.40;;;;;;1080771;47;20637;-72
2021/12/14 09:31:00;;;;;;;12.48;8.73;;;12.50;69.50;;;;;;1080861;47;20038;-71
2021/12/14 09:32:42;;;;;;;12.00;8.82;;;12.50;69.50;;;;;;1080475;47;20038;-72
2021/12/14 09:34:27;;;;;;;11.70;7.63;;;12.50;69.60;;;;;;1080341;47;20034;-71
2021/12/14 09:36:13;;;;;;;11.43;8.20;;;12.50;69.80;;;;;;1080141;47;20039;-73
2021/12/14 09:37:56;;;;;;;13.48;9.25;;;12.40;69.60;;;;;;1081194;39;20459;-71
2021/12/14 09:39:43;;;;;;;11.45;8.38;;;12.40;69.70;;;;;;1080656;47;20041;-71
2021/12/14 09:41:28;;;;;;;14.20;8.80;;;12.50;69.90;;;;;;1080839;47;20141;-72
2021/12/14 09:43:10;;;;;;;11.82;8.45;;;12.50;70.00;;;;;;1080968;47;20042;-71
2021/12/14 09:44:57;;;;;;;13.50;9.38;;;12.50;70.00;;;;;;1081026;47;20034;-72
2021/12/14 09:46:39;;;;;;;13.45;8.60;;;12.50;70.20;;;;;;1080887;39;20523;-71
2021/12/14 09:48:27;;;;;;;13.90;8.95;;;12.50;70.10;;;;;;1080027;46;20039;-71
2021/12/14 09:50:17;;;;;;;12.57;8.40;;;12.50;70.00;;;;;;1080350;54;20059;-71
2021/12/14 09:52:10;;;;;;;12.07;8.45;;;12.50;70.10;;;;;;1079657;54;20086;-70
2021/12/14 09:53:54;;;;;;;13.10;8.98;;;12.50;70.00;;;;;;1080520;47;20593;-72
2021/12/14 09:55:39;;;;;;;11.50;8.55;;;12.50;69.80;;;;;;1080706;47;20050;-71
2021/12/14 09:57:32;;;;;;;11.82;8.70;;;12.50;69.80;;;;;;1080519;47;20058;-71
2021/12/14 09:59:14;;;;;;;11.95;8.05;;;12.50;69.90;;;;;;1080166;47;20034;-71
2021/12/14 10:01:07;;;;;;;13.23;9.10;;;12.50;69.70;;;;;;1081431;39;20447;-71
2021/12/14 10:02:51;;;;;;;11.68;7.90;;;12.50;69.80;;;;;;1080642;47;20710;-71
2021/12/14 10:04:40;;;;;;;12.57;8.38;;;12.60;69.90;;;;;;1081280;31;20504;-71
2021/12/14 10:06:27;;;;;;;11.00;8.23;;;12.50;70.00;;;;;;1081147;47;20154;-72
2021/12/14 10:08:17;;;;;;;11.45;7.60;;;12.50;70.20;;;;;;1080615;47;20035;-72
2021/12/14 10:10:00;;;;;;;12.40;9.10;;;12.50;70.90;;;;;;1081185;47;20042;-72
2021/12/14 10:14:01;;;;;;;12.10;8.52;;;12.60;70.00;;;;;;1081151;47;20037;-72
2021/12/14 10:15:48;;;;;;;11.55;8.38;;;12.60;69.80;;;;;;1080920;46;20035;-73
2021/12/14 10:17:30;;;;;;;12.75;8.43;;;12.60;69.90;;;;;;1080500;46;20711;-73
2021/12/14 10:19:15;;;;;;;12.20;8.35;;;12.60;70.00;;;;;;1081212;47;20057;-72
2021/12/14 10:21:02;;;;;;;10.27;7.88;;;12.60;70.00;;;;;;1081303;46;20037;-72
2021/12/14 10:22:44;;;;;;;11.52;8.13;;;12.60;70.00;;;;;;1081039;46;20038;-73
2021/12/14 10:24:29;;;;;;;11.85;8.75;;;12.60;70.00;;;;;;1080675;46;20065;-73
2021/12/14 10:26:11;;;;;;;12.88;9.13;;;12.60;69.90;;;;;;1080363;46;20034;-73
2021/12/14 10:27:53;;;;;;;13.25;9.18;;;12.60;70.00;;;;;;1079981;47;20049;-74
2021/12/14 10:29:35;;;;;;;13.85;9.30;;;12.60;70.10;;;;;;1080760;46;20076;-71
2021/12/14 10:31:28;;;;;;;11.43;8.40;;;12.60;70.30;;;;;;1081007;46;20055;-71
2021/12/14 10:33:11;;;;;;;11.85;8.27;;;12.60;70.30;;;;;;1080929;46;20111;-72
2021/12/14 10:34:58;;;;;;;12.32;8.75;;;12.70;70.20;;;;;;1080692;46;20039;-71
2021/12/14 10:36:43;;;;;;;12.88;8.43;;;12.70;70.20;;;;;;1080984;46;20034;-71
2021/12/14 10:38:30;;;;;;;13.02;8.57;;;12.70;70.10;;;;;;1080310;46;20069;-71
2021/12/14 10:44:15;;;;;;;10.82;8.00;;;12.70;70.30;;;;;;1081343;54;20046;-71
2021/12/14 10:46:01;;;;;;;11.05;7.93;;;12.80;70.40;;;;;;1081263;46;20034;-71
2021/12/14 10:47:45;;;;;;;12.93;9.02;;;12.80;70.20;;;;;;1080931;47;20046;-71
2021/12/14 10:49:26;;;;;;;11.23;8.40;;;12.80;70.10;;;;;;1081521;46;20133;-74
2021/12/14 10:51:11;;;;;;;12.30;8.50;;;12.80;70.00;;;;;;1081306;46;20035;-71
2021/12/14 10:52:53;;;;;;;13.45;9.43;;;12.80;70.00;;;;;;1081433;47;20035;-74
2021/12/14 10:54:34;;;;;;;11.55;8.80;;;12.80;69.80;;;;;;1080877;46;20058;-73
2021/12/14 10:56:26;;;;;;;13.18;9.68;;;12.90;69.90;;;;;;1080869;47;20566;-72
2021/12/14 10:58:09;;;;;;;13.90;9.20;;;12.80;69.90;;;;;;1080860;46;20081;-73
2021/12/14 10:59:54;;;;;;;12.10;8.60;;;12.90;70.00;;;;;;1080800;46;20571;-74
2021/12/14 11:01:38;;;;;;;14.80;9.77;;;12.80;69.90;;;;;;1081147;39;20498;-72
2021/12/14 11:03:25;;;;;;;12.07;9.15;;;12.90;69.90;;;;;;1080851;46;20045;-72
2021/12/14 11:05:15;;;;;;;13.82;9.95;;;12.90;69.80;;;;;;1081018;47;20038;-72
2021/12/14 11:07:00;;;;;;;16.88;10.88;;;12.90;69.70;;;;;;1080565;46;20055;-72
2021/12/14 11:09:39;;;;;;;15.90;10.65;;;12.90;69.40;;;;;;1081622;39;20485;-72
2021/12/14 11:10:53;;;;;;;13.88;9.38;;;12.90;69.40;;;;;;1080654;46;20034;-72
2021/12/14 11:12:37;;;;;;;13.90;9.32;;;12.90;69.30;;;;;;1080936;47;20042;-72
2021/12/14 11:14:26;;;;;;;12.80;8.98;;;12.90;69.50;;;;;;1081308;47;20041;-72
2021/12/14 11:16:15;;;;;;;15.50;10.82;;;12.90;69.50;;;;;;1081092;47;20567;-72
2021/12/14 11:18:11;;;;;;;13.32;9.70;;;12.90;69.50;;;;;;1081001;46;20038;-71
2021/12/14 11:19:57;;;;;;;14.35;10.50;;;12.90;69.50;;;;;;1081502;47;20034;-72
2021/12/14 11:21:38;;;;;;;14.70;10.27;;;12.90;69.40;;;;;;1081647;47;20113;-72
2021/12/14 11:23:33;;;;;;;15.63;10.10;;;12.90;69.50;;;;;;1081206;47;20035;-71
2021/12/14 11:25:21;;;;;;;15.40;10.43;;;12.90;69.50;;;;;;1080770;46;20034;-73
2021/12/14 11:27:12;;;;;;;12.65;9.40;;;12.90;69.50;;;;;;1080973;47;20045;-72
2021/12/14 11:28:59;;;;;;;14.20;10.38;;;12.90;69.60;;;;;;1080318;47;20030;-72
2021/12/14 11:30:49;;;;;;;13.32;9.35;;;12.90;69.50;;;;;;1081112;46;20034;-72
2021/12/14 11:32:30;;;;;;;;;;;12.90;69.40;;;;;;1080399;46;20034;-72
2021/12/14 11:34:17;;;;;;;12.25;8.32;;;13.00;69.80;;;;;;1080695;47;20451;-72
2021/12/14 11:35:58;;;;;;;12.23;8.88;;;13.00;69.40;;;;;;1080879;46;20126;-74
2021/12/14 11:37:40;;;;;;;12.13;8.70;;;13.00;69.30;;;;;;1080656;47;20034;-72
2021/12/14 11:39:27;;;;;;;15.48;10.60;;;12.90;69.30;;;;;;1080499;47;20038;-72
2021/12/14 11:41:32;;;;;;;14.32;11.10;;;13.00;69.50;;;;;;1080860;47;20501;-72
2021/12/14 11:43:18;;;;;;;15.55;9.38;;;13.00;69.60;;;;;;1081040;46;20030;-72
2021/12/14 11:45:15;;;;;;;15.25;10.43;;;13.00;69.60;;;;;;1080919;46;20098;-72
2021/12/14 11:49:08;;;;;;;17.13;10.05;;;13.00;69.70;;;;;;1080624;39;20324;-72
2021/12/14 11:50:50;;;;;;;17.10;12.15;;;13.00;69.50;;;;;;1080514;46;20042;-72
2021/12/14 11:52:37;;;;;;;16.90;11.82;;;13.00;69.40;;;;;;1079787;46;20248;-72
2021/12/14 11:54:20;;;;;;;16.23;11.43;;;13.00;69.40;;;;;;1080097;46;20035;-72
2021/12/14 11:56:09;;;;;;;13.75;10.77;;;13.00;69.40;;;;;;1080519;47;20042;-72
2021/12/14 11:58:04;;;;;;;14.05;10.20;;;13.00;69.50;;;;;;1080522;47;20559;-72
2021/12/14 11:59:46;;;;;;;13.85;10.07;;;13.00;69.70;;;;;;1080479;47;20038;-72
2021/12/14 12:01:47;;;;;;;13.68;10.27;;;13.00;69.60;;;;;;1080231;46;20146;-72
2021/12/14 12:03:52;;;;;;;17.65;12.15;;;13.00;69.70;;;;;;1080780;39;20383;-72
2021/12/14 12:05:35;;;;;;;17.10;12.20;;;13.10;69.70;;;;;;1080647;47;20041;-72
2021/12/14 12:11:06;;;;;;;14.88;10.27;;;13.10;69.70;;;;;;1081461;46;20038;-72
2021/12/14 12:12:48;;;;;;;14.48;10.02;;;13.10;69.80;;;;;;1081348;46;20035;-72
2021/12/14 12:14:43;;;;;;;16.38;11.60;;;13.20;69.90;;;;;;1080908;46;20971;-72
2021/12/14 12:16:27;;;;;;;15.85;10.45;;;13.10;69.70;;;;;;1080576;54;20183;-72
2021/12/14 12:18:09;;;;;;;15.00;10.18;;;13.20;70.60;;;;;;1081159;46;20034;-72
2021/12/14 12:19:53;;;;;;;16.63;11.05;;;13.20;69.80;;;;;;1080825;47;20085;-72
2021/12/14 12:21:35;;;;;;;16.80;10.88;;;13.20;69.70;;;;;;1081136;46;20023;-72
2021/12/14 12:23:24;;;;;;;17.70;12.48;;;13.30;69.70;;;;;;1080651;47;20653;-72
2021/12/14 12:25:12;;;;;;;16.90;12.10;;;13.30;69.50;;;;;;1080887;47;20039;-72
2021/12/14 12:27:15;;;;;;;15.20;10.55;;;13.30;69.50;;;;;;1080550;39;20315;-72
2021/12/14 12:29:02;;;;;;;16.70;11.00;;;13.40;69.60;;;;;;1080219;47;20034;-72
2021/12/14 12:30:53;;;;;;;14.45;11.00;;;13.40;69.50;;;;;;1081116;39;20485;-72
2021/12/14 12:32:36;;;;;;;17.00;11.18;;;13.40;69.20;;;;;;1080829;54;20033;-72
2021/12/14 12:34:17;;;;;;;14.68;10.88;;;13.40;69.10;;;;;;1081244;46;20030;-72
2021/12/14 12:36:26;;;;;;;13.45;10.23;;;13.40;69.20;;;;;;1080875;46;20037;-72
2021/12/14 12:38:42;;;;;;;15.40;10.95;;;13.40;69.20;;;;;;1080669;46;20046;-72
2021/12/14 12:40:48;;;;;;;17.15;11.65;;;13.50;69.30;;;;;;1080821;46;20034;-72
2021/12/14 12:42:29;;;;;;;16.23;11.13;;;13.50;69.20;;;;;;1080473;47;20583;-73
2021/12/14 12:44:12;;;;;;;16.92;10.82;;;13.50;69.10;;;;;;1080046;47;20100;-73
2021/12/14 12:46:02;;;;;;;19.10;11.75;;;13.50;69.10;;;;;;1080945;46;20023;-73
2021/12/14 12:47:43;;;;;;;16.35;11.70;;;13.60;69.00;;;;;;1080389;47;20062;-73
2021/12/14 12:49:28;;;;;;;15.82;11.73;;;13.60;69.00;;;;;;1080995;47;20041;-73
2021/12/14 12:51:10;;;;;;;13.25;10.15;;;13.60;68.90;;;;;;1081042;46;20058;-72
2021/12/14 12:52:52;;;;;;;15.48;11.00;;;13.60;68.90;;;;;;1080851;46;20035;-74
2021/12/14 12:54:58;;;;;;;15.60;10.73;;;13.60;69.10;;;;;;1081364;39;20467;-73
2021/12/14 12:56:42;;;;;;;15.32;10.57;;;13.60;69.10;;;;;;1080983;47;20033;-75
2021/12/14 12:58:24;;;;;;;13.30;9.18;;;13.60;69.10;;;;;;1080598;47;20034;-72
2021/12/14 13:00:43;;;;;;;18.25;11.65;;;13.60;69.20;;;;;;1080945;46;20039;-73
2021/12/14 13:02:37;;;;;;;16.77;11.25;;;13.70;69.00;;;;;;1080830;47;20050;-72
2021/12/14 13:04:38;;;;;;;13.23;10.20;;;13.70;68.90;;;;;;1081027;47;20586;-73
2021/12/14 13:06:21;;;;;;;;;;;13.70;68.80;;;;;;1080765;46;20042;-75
2021/12/14 13:08:17;;;;;;;12.35;9.73;;;13.70;68.90;;;;;;1080335;47;20539;-74
2021/12/14 13:10:23;;;;;;;13.82;9.48;;;13.80;68.60;;;;;;1080512;47;20046;-71
2021/12/14 13:12:05;;;;;;;13.63;9.77;;;13.80;68.70;;;;;;1080270;47;20074;-73
2021/12/14 13:13:48;;;;;;;17.13;11.20;;;13.90;69.60;;;;;;1080793;47;20035;-72
2021/12/14 13:15:35;;;;;;;14.85;10.25;;;13.80;68.70;;;;;;1080263;47;20022;-71
2021/12/14 13:17:18;;;;;;;13.13;9.27;;;13.90;68.80;;;;;;1080335;47;20490;-73
2021/12/14 13:19:10;;;;;;;15.02;10.70;;;13.90;68.90;;;;;;1080651;47;20074;-73
2021/12/14 13:21:00;;;;;;;14.63;10.68;;;13.90;68.90;;;;;;1081038;39;20684;-73
2021/12/14 13:22:48;;;;;;;16.52;11.25;;;14.00;68.80;;;;;;1080642;47;20034;-71
2021/12/14 13:24:38;;;;;;;22.95;11.25;;;14.00;68.50;;;;;;1080623;47;20427;-72
2021/12/14 13:26:38;;;;;;;15.13;10.10;;;14.00;68.40;;;;;;1080169;47;20015;-73
2021/12/14 13:28:36;;;;;;;14.48;10.07;;;14.00;68.30;;;;;;1080812;47;20599;-73
2021/12/14 13:30:17;;;;;;;15.20;9.93;;;14.00;68.20;;;;;;1081190;47;20570;-72
2021/12/14 13:32:12;;;;;;;14.98;10.32;;;14.00;68.10;;;;;;1080429;54;20062;-72
2021/12/14 13:33:54;;;;;;;16.02;9.77;;;14.00;68.10;;;;;;1081161;47;20058;-72
2021/12/14 13:35:35;;;;;;;14.02;10.07;;;14.00;68.10;;;;;;1081101;47;20042;-73
2021/12/14 13:37:22;;;;;;;11.80;9.23;;;14.00;68.00;;;;;;1080472;47;20039;-72
2021/12/14 13:39:06;;;;;;;14.25;10.30;;;14.00;68.00;;;;;;1080717;54;20041;-72
2021/12/14 13:40:48;;;;;;;13.88;10.38;;;14.00;67.80;;;;;;1081211;46;20107;-72
2021/12/14 13:42:57;;;;;;;16.92;10.75;;;14.00;67.80;;;;;;1080912;39;20459;-72
2021/12/14 13:44:50;;;;;;;14.32;9.68;;;14.00;67.80;;;;;;1081407;47;20194;-72
2021/12/14 13:46:31;;;;;;;15.18;10.48;;;14.00;67.70;;;;;;1080880;47;20068;-73
2021/12/14 13:48:17;;;;;;;17.60;12.30;;;14.00;67.50;;;;;;1081805;39;20430;-73
2021/12/14 13:50:00;;;;;;;15.85;10.57;;;13.90;67.40;;;;;;1081095;47;20038;-73
2021/12/14 13:51:42;;;;;;;18.02;11.77;;;13.90;67.40;;;;;;1081522;46;20042;-73
2021/12/14 13:53:23;;;;;;;15.55;10.90;;;13.90;67.50;;;;;;1081144;54;20034;-74
2021/12/14 13:55:20;;;;;;;15.15;10.68;;;13.90;67.50;;;;;;1081370;46;20034;-73
2021/12/14 13:57:01;;;;;;;12.82;9.48;;;13.80;67.60;;;;;;1080668;46;20601;-72
2021/12/14 13:58:42;;;;;;;13.27;9.70;;;13.80;67.70;;;;;;1081529;46;20045;-72
2021/12/14 14:00:31;;;;;;;12.85;9.65;;;13.80;67.90;;;;;;1081233;46;20062;-72
2021/12/14 14:02:13;;;;;;;15.68;10.25;;;13.80;68.00;;;;;;1080915;46;20063;-73
2021/12/14 14:04:01;;;;;;;15.50;10.63;;;13.80;68.10;;;;;;1081428;46;20041;-72
2021/12/14 14:05:44;;;;;;;16.20;10.60;;;13.80;68.10;;;;;;1081292;39;20451;-72
2021/12/14 14:07:25;;;;;;;16.70;10.63;;;13.80;68.10;;;;;;1081469;39;20479;-72
2021/12/14 14:09:11;;;;;;;15.98;11.13;;;13.80;68.10;;;;;;1081423;46;20043;-72
2021/12/14 14:10:54;;;;;;;13.68;10.05;;;13.80;68.40;;;;;;1081138;46;20061;-73
2021/12/14 14:13:09;;;;;;;14.88;11.15;;;13.70;68.30;;;;;;1081157;46;20039;-72
2021/12/14 14:14:51;;;;;;;12.98;10.15;;;13.70;68.40;;;;;;1081222;39;20446;-73
2021/12/14 14:16:50;;;;;;;14.18;9.93;;;13.80;68.40;;;;;;1081082;46;20046;-73
2021/12/14 14:18:39;;;;;;;14.45;9.52;;;13.80;68.70;;;;;;1081298;46;20069;-72
2021/12/14 14:20:28;;;;;;;11.80;9.00;;;13.80;68.50;;;;;;1080999;46;20014;-72
2021/12/14 14:22:12;;;;;;;16.25;10.70;;;13.80;68.40;;;;;;1080310;46;20041;-73
2021/12/14 14:23:54;;;;;;;13.73;9.77;;;13.80;68.30;;;;;;1080808;46;20073;-73
2021/12/14 14:25:40;;;;;;;16.42;10.02;;;13.80;68.30;;;;;;1080745;46;20078;-72
2021/12/14 14:27:42;;;;;;;17.08;12.93;;;13.80;68.30;;;;;;1081563;31;20543;-71
2021/12/14 14:29:25;;;;;;;17.60;11.98;;;13.80;68.20;;;;;;1080720;46;20084;-72
2021/12/14 14:31:09;;;;;;;16.27;10.27;;;13.80;68.10;;;;;;1080201;46;20034;-72
2021/12/14 14:33:11;;;;;;;16.08;10.90;;;13.70;68.20;;;;;;1080887;46;20034;-72
2021/12/14 14:34:56;;;;;;;16.45;10.70;;;13.70;68.30;;;;;;1080794;46;20498;-74
2021/12/14 14:36:44;;;;;;;14.73;10.35;;;13.70;68.20;;;;;;1080945;47;20559;-72
2021/12/14 14:38:26;;;;;;;13.13;9.45;;;13.70;68.30;;;;;;1080937;46;20039;-72
2021/12/14 14:40:11;;;;;;;13.00;9.23;;;13.70;68.30;;;;;;1081371;46;20026;-72
2021/12/14 14:41:57;;;;;;;15.95;10.68;;;13.70;68.50;;;;;;1080427;46;20072;-72
2021/12/14 14:44:08;;;;;;;14.88;9.93;;;13.70;68.60;;;;;;1080956;47;20599;-73
2021/12/14 14:45:49;;;;;;;13.63;9.20;;;13.70;68.70;;;;;;1080621;46;20037;-72
2021/12/14 14:47:39;;;;;;;15.70;11.05;;;13.70;68.60;;;;;;1080662;47;20034;-73
2021/12/14 14:49:32;;;;;;;15.07;10.25;;;13.70;68.60;;;;;;1081067;46;20034;-72
2021/12/14 14:51:48;;;;;;;13.88;9.93;;;13.70;69.40;;;;;;1081247;46;20026;-72
2021/12/14 14:53:32;;;;;;;13.63;9.55;;;13.60;68.80;;;;;;1081264;47;20038;-73
2021/12/14 14:55:13;;;;;;;15.02;11.20;;;13.70;68.60;;;;;;1081074;46;20035;-73
2021/12/14 14:56:54;;;;;;;17.42;11.60;;;13.70;68.50;;;;;;1080395;46;20027;-73
2021/12/14 14:58:37;;;;;;;14.95;10.57;;;13.70;68.50;;;;;;1081122;47;20038;-73
2021/12/14 15:00:26;;;;;;;16.38;11.35;;;13.60;68.50;;;;;;1081358;46;20041;-73
2021/12/14 15:02:09;;;;;;;14.93;10.15;;;13.60;68.50;;;;;;1081207;47;20058;-73
2021/12/14 15:03:59;;;;;;;15.13;10.40;;;13.60;68.50;;;;;;1081369;46;20125;-72
2021/12/14 15:05:52;;;;;;;13.63;10.15;;;13.60;68.70;;;;;;1081391;46;20034;-74
2021/12/14 15:07:46;;;;;;;16.20;10.70;;;13.60;68.70;;;;;;1080741;47;20061;-73
2021/12/14 15:09:30;;;;;;;14.07;9.43;;;13.60;68.80;;;;;;1081206;47;20134;-73
2021/12/14 15:11:14;;;;;;;13.90;9.55;;;13.60;68.80;;;;;;1080903;47;20034;-73
2021/12/14 15:13:33;;;;;;;14.13;10.52;;;13.60;68.90;;;;;;1081151;46;20023;-73
2021/12/14 15:15:17;;;;;;;14.23;9.32;;;13.50;69.30;;;;;;1081175;46;20034;-72
2021/12/14 15:17:25;;;;;;;14.80;10.43;;;13.50;69.10;;;;;;1080481;46;20035;-72
2021/12/14 15:19:06;;;;;;;14.98;10.20;;;13.60;69.00;;;;;;1080429;46;20065;-72
2021/12/14 15:20:48;;;;;;;13.75;9.23;;;13.60;68.90;;;;;;1080362;46;20027;-72
2021/12/14 15:22:34;;;;;;;15.85;11.10;;;13.60;68.90;;;;;;1080781;46;20034;-73
2021/12/14 15:24:24;;;;;;;15.98;10.40;;;13.50;68.90;;;;;;1080719;47;20034;-72
2021/12/14 15:26:13;;;;;;;15.73;10.73;;;13.50;69.00;;;;;;1080555;46;20061;-72
2021/12/14 15:28:01;;;;;;;15.85;10.43;;;13.50;69.00;;;;;;1080710;47;20661;-72
2021/12/14 15:29:52;;;;;;;16.30;10.57;;;13.50;68.90;;;;;;1080763;39;20499;-72
2021/12/14 15:31:33;;;;;;;14.95;10.38;;;13.50;68.80;;;;;;1081181;47;20034;-73
2021/12/14 15:33:17;;;;;;;15.23;10.57;;;13.50;68.80;;;;;;1080889;46;20034;-72
2021/12/14 15:35:21;;;;;;;17.40;10.88;;;13.50;68.80;;;;;;1081096;39;20437;-72
2021/12/14 15:37:38;;;;;;;14.95;10.45;;;13.50;69.10;;;;;;1080072;47;20046;-72
2021/12/14 15:39:19;;;;;;;17.02;10.25;;;13.50;69.10;;;;;;1080947;47;20042;-73
2021/12/14 15:41:20;;;;;;;14.85;10.57;;;13.40;68.80;;;;;;1081331;46;20034;-72
2021/12/14 15:43:01;;;;;;;14.10;9.60;;;13.40;69.00;;;;;;1081349;46;20058;-72
2021/12/14 15:44:42;;;;;;;13.88;9.35;;;13.40;68.90;;;;;;1081208;47;20135;-72
2021/12/14 15:46:28;;;;;;;14.27;9.25;;;13.40;69.00;;;;;;1080878;47;20061;-72
2021/12/14 15:48:27;;;;;;;15.30;10.63;;;13.40;69.10;;;;;;1081403;46;20166;-72
2021/12/14 15:50:17;;;;;;;13.98;10.48;;;13.40;69.30;;;;;;1080750;46;20041;-72
2021/12/14 15:52:01;;;;;;;14.07;10.23;;;13.40;69.20;;;;;;1081066;46;20038;-72
2021/12/14 15:53:57;;;;;;;13.45;9.65;;;13.40;69.10;;;;;;1080762;46;20034;-72
2021/12/14 15:55:40;;;;;;;12.70;9.52;;;13.40;69.30;;;;;;1080497;47;20539;-72
2021/12/14 15:57:22;;;;;;;16.92;10.88;;;13.40;69.10;;;;;;1080673;46;20645;-72
2021/12/14 15:59:24;;;;;;;15.85;10.68;;;13.40;69.20;;;;;;1080849;46;20038;-72
2021/12/14 16:01:11;;;;;;;14.02;10.00;;;13.40;69.40;;;;;;1080960;46;20121;-72
2021/12/14 16:02:52;;;;;;;15.48;9.82;;;13.40;69.40;;;;;;1080953;46;20041;-72
2021/12/14 16:04:41;;;;;;;15.85;11.02;;;13.40;69.40;;;;;;1080899;46;20034;-73
2021/12/14 16:06:23;;;;;;;14.38;10.65;;;13.40;69.40;;;;;;1080074;46;20034;-72
2021/12/14 16:08:05;;;;;;;14.52;9.63;;;13.40;69.40;;;;;;1080330;47;20038;-72
2021/12/14 16:09:49;;;;;;;12.02;8.90;;;13.40;69.40;;;;;;1080543;46;20058;-73
2021/12/14 16:11:44;;;;;;;15.00;9.95;;;13.40;70.10;;;;;;1081332;39;20455;-73
2021/12/14 16:15:26;;;;;;;;;;;13.40;69.50;;;;;;1081083;46;20038;-73
2021/12/14 16:17:18;;;;;;;12.13;8.40;;;13.40;69.70;;;;;;1080288;46;20867;-73
2021/12/14 16:19:00;;;;;;;15.15;10.07;;;13.40;69.20;;;;;;1080843;47;20035;-72
2021/12/14 16:20:52;;;;;;;13.23;9.57;;;13.40;69.00;;;;;;1080396;46;20039;-73
2021/12/14 16:22:36;;;;;;;13.43;9.30;;;13.40;69.20;;;;;;1080364;47;20062;-72
2021/12/14 16:24:23;;;;;;;12.38;9.15;;;13.50;69.30;;;;;;1080517;39;20487;-72
2021/12/14 16:26:09;;;;;;;14.50;9.00;;;13.40;69.30;;;;;;1080729;54;20045;-73
2021/12/14 16:27:55;;;;;;;13.50;9.18;;;13.40;69.40;;;;;;1081139;39;20498;-72
2021/12/14 16:29:37;;;;;;;13.85;9.68;;;13.40;69.50;;;;;;1080744;46;20062;-73
2021/12/14 16:31:23;;;;;;;13.93;10.15;;;13.40;69.50;;;;;;1080231;46;20745;-73
2021/12/14 16:33:06;;;;;;;12.73;9.75;;;13.40;69.70;;;;;;1080486;47;20137;-73
2021/12/14 16:34:49;;;;;;;12.95;9.23;;;13.40;69.70;;;;;;1080753;46;20039;-73
2021/12/14 16:36:33;;;;;;;14.32;9.50;;;13.40;69.70;;;;;;1080055;47;20045;-73
2021/12/14 16:38:19;;;;;;;14.15;9.88;;;13.40;69.70;;;;;;1080721;46;20055;-73
2021/12/14 16:40:04;;;;;;;13.95;8.82;;;13.40;69.70;;;;;;1080888;46;20149;-74
2021/12/14 16:41:48;;;;;;;13.52;9.40;;;13.40;69.60;;;;;;1080474;47;20038;-73
2021/12/14 16:43:39;;;;;;;14.57;10.65;;;13.40;69.50;;;;;;1080558;47;20051;-73
2021/12/14 16:45:21;;;;;;;12.73;9.82;;;13.40;69.40;;;;;;1080503;47;20041;-73
2021/12/14 16:47:17;;;;;;;16.13;10.75;;;13.40;69.30;;;;;;1080317;46;20034;-73
2021/12/14 16:49:00;;;;;;;12.27;8.85;;;13.40;69.40;;;;;;1080594;47;20061;-72
2021/12/14 16:50:41;;;;;;;14.23;9.73;;;13.40;69.30;;;;;;1080635;47;20618;-72
2021/12/14 16:52:31;;;;;;;15.15;9.80;;;13.40;69.30;;;;;;1080243;46;20064;-73
2021/12/14 16:54:16;;;;;;;12.88;9.15;;;13.40;69.30;;;;;;1081317;47;20045;-73
2021/12/14 16:55:58;;;;;;;12.52;9.15;;;13.40;69.30;;;;;;1080116;46;20034;-73
2021/12/14 16:57:40;;;;;;;13.05;9.10;;;13.40;69.30;;;;;;1080581;47;20075;-73
2021/12/14 16:59:27;;;;;;;15.10;10.45;;;13.40;69.30;;;;;;1081002;47;20035;-72
2021/12/14 17:01:10;;;;;;;13.73;10.07;;;13.40;69.40;;;;;;1080796;47;20146;-73
2021/12/14 17:02:53;;;;;;;14.93;9.32;;;13.40;69.30;;;;;;1080102;46;20035;-72
2021/12/14 17:04:36;;;;;;;13.25;9.40;;;13.30;69.40;;;;;;1080741;47;20034;-72
2021/12/14 17:06:17;;;;;;;14.80;9.38;;;13.40;69.40;;;;;;1080293;47;20057;-73
2021/12/14 17:08:07;;;;;;;13.05;8.93;;;13.30;69.40;;;;;;1080770;47;20041;-72
2021/12/14 17:09:49;;;;;;;11.80;8.70;;;13.30;69.50;;;;;;1080503;47;20041;-73
2021/12/14 17:11:33;;;;;;;13.48;9.23;;;13.30;69.50;;;;;;1081013;39;20704;-73
2021/12/14 17:13:32;;;;;;;13.57;9.15;;;13.30;69.40;;;;;;1080723;39;20807;-72
2021/12/14 17:15:25;;;;;;;15.10;9.50;;;13.30;70.30;;;;;;1080796;47;20039;-72
2021/12/14 17:17:09;;;;;;;12.68;8.82;;;13.30;69.60;;;;;;1080496;39;20618;-73
2021/12/14 17:18:56;;;;;;;12.50;10.05;;;13.30;69.70;;;;;;1080235;47;20057;-73
2021/12/14 17:20:40;;;;;;;12.20;9.00;;;13.40;69.80;;;;;;1080522;39;20464;-72
2021/12/14 17:22:32;;;;;;;14.43;10.02;;;13.30;69.70;;;;;;1080457;47;20638;-72
2021/12/14 17:24:22;;;;;;;12.27;9.63;;;13.30;69.70;;;;;;1080585;39;20155;-73
2021/12/14 17:26:11;;;;;;;16.30;10.57;;;13.30;69.60;;;;;;1080528;47;20126;-73
2021/12/14 17:27:52;;;;;;;16.63;10.85;;;13.30;69.70;;;;;;1080162;47;20039;-72
2021/12/14 17:29:37;;;;;;;15.45;9.63;;;13.30;69.50;;;;;;1080436;47;20039;-72
2021/12/14 17:31:22;;;;;;;15.13;10.55;;;13.40;69.70;;;;;;1080599;39;20497;-72
2021/12/14 17:33:06;;;;;;;14.88;9.73;;;13.30;69.70;;;;;;1080532;47;20751;-72
2021/12/14 17:34:51;;;;;;;15.82;11.00;;;13.30;69.70;;;;;;1079346;47;20788;-72
2021/12/14 17:36:45;;;;;;;15.88;10.13;;;13.30;69.70;;;;;;1080150;47;20079;-73
2021/12/14 17:38:29;;;;;;;14.80;10.07;;;13.30;69.70;;;;;;1080789;47;20035;-73
2021/12/14 17:40:20;;;;;;;14.48;10.90;;;13.30;69.70;;;;;;1080460;47;20058;-73
2021/12/14 17:42:07;;;;;;;15.95;10.68;;;13.30;69.80;;;;;;1079598;47;20104;-73
2021/12/14 17:44:04;;;;;;;14.70;10.57;;;13.20;69.80;;;;;;1080553;47;20038;-72
2021/12/14 17:45:47;;;;;;;14.98;9.95;;;13.30;70.00;;;;;;1080417;47;20551;-73
2021/12/14 17:47:33;;;;;;;16.42;10.60;;;13.30;70.00;;;;;;1080337;47;21203;-73
2021/12/14 17:49:17;;;;;;;15.68;11.30;;;13.30;70.00;;;;;;1080641;47;20129;-72
2021/12/14 17:51:03;;;;;;;15.75;10.60;;;13.20;70.10;;;;;;1081087;39;20424;-72
2021/12/14 17:52:50;;;;;;;17.90;11.90;;;13.30;70.10;;;;;;1080489;47;20038;-73